createdAt,value
2023-05-20T00:00:28.684Z,93.71
2023-05-20T00:03:38.797Z,93.78
2023-05-20T00:06:46.841Z,93.65
2023-05-20T00:09:53.724Z,92.94
2023-05-20T00:12:53.368Z,91.95
2023-05-20T00:16:00.304Z,91.79
2023-05-20T00:19:07.347Z,92.91
2023-05-20T00:22:14.345Z,93.37
2023-05-20T00:25:21.754Z,93.28
2023-05-20T00:28:28.345Z,93.21
2023-05-20T00:31:35.797Z,93.14
2023-05-20T00:34:49.149Z,91.92
2023-05-20T00:37:54.877Z,91.94
2023-05-20T00:41:01.937Z,92.31
2023-05-20T00:44:15.064Z,91.40
2023-05-20T00:47:21.833Z,90.33
2023-05-20T00:50:29.818Z,91.22
2023-05-20T00:53:40.705Z,92.38
2023-05-20T00:56:48.375Z,92.73
2023-05-20T00:59:55.395Z,92.80
2023-05-20T01:03:02.551Z,92.88
2023-05-20T01:06:29.610Z,91.90
2023-05-20T01:09:36.416Z,91.73
2023-05-20T01:13:04.206Z,90.97
2023-05-20T01:16:12.260Z,90.69
2023-05-20T01:19:19.265Z,90.62
2023-05-20T01:22:26.307Z,90.45
2023-05-20T01:25:33.451Z,90.44
2023-05-20T01:28:40.787Z,90.09
2023-05-20T01:31:49.772Z,90.29
2023-05-20T01:34:56.772Z,90.34
2023-05-20T01:37:54.594Z,90.66
2023-05-20T01:41:01.698Z,90.97
2023-05-20T01:44:08.636Z,90.72
2023-05-20T01:47:15.778Z,90.89
2023-05-20T01:50:22.632Z,90.25
2023-05-20T01:53:30.345Z,90.14
2023-05-20T01:56:37.346Z,89.84
2023-05-20T01:59:44.254Z,89.86
2023-05-20T02:02:51.436Z,90.27
2023-05-20T02:05:58.145Z,90.69
2023-05-20T02:09:05.024Z,90.86
2023-05-20T02:12:11.923Z,90.91
2023-05-20T02:15:19.317Z,90.25
2023-05-20T02:18:26.503Z,89.68
2023-05-20T02:21:36.282Z,89.44
2023-05-20T02:24:43.497Z,89.15
2023-05-20T02:27:50.517Z,90.95
2023-05-20T02:30:57.595Z,90.55
2023-05-20T02:33:53.657Z,91.04
2023-05-20T02:36:54.485Z,91.30
2023-05-20T02:40:01.488Z,90.60
2023-05-20T02:42:53.486Z,89.72
2023-05-20T02:46:01.368Z,89.18
2023-05-20T02:49:08.353Z,89.26
2023-05-20T02:52:15.390Z,89.20
2023-05-20T02:55:22.385Z,89.54
2023-05-20T02:58:29.384Z,91.13
2023-05-20T03:01:22.029Z,90.68
2023-05-20T03:04:27.550Z,89.60
2023-05-20T03:07:34.816Z,89.43
2023-05-20T03:10:45.172Z,89.59
2023-05-20T03:13:52.176Z,90.29
2023-05-20T03:16:59.148Z,90.17
2023-05-20T03:20:07.164Z,89.60
2023-05-20T03:23:18.325Z,90.05
2023-05-20T03:26:45.693Z,90.25
2023-05-20T03:29:53.623Z,89.46
2023-05-20T03:33:00.631Z,90.52
2023-05-20T03:36:08.591Z,91.26
2023-05-20T03:39:15.690Z,92.29
2023-05-20T03:42:22.690Z,93.02
2023-05-20T03:45:49.526Z,93.00
2023-05-20T03:48:57.105Z,92.85
2023-05-20T03:52:04.013Z,93.02
2023-05-20T03:55:11.567Z,92.32
2023-05-20T03:58:18.600Z,91.25
2023-05-20T04:01:25.486Z,90.77
2023-05-20T04:04:22.483Z,90.41
2023-05-20T04:07:29.468Z,89.87
2023-05-20T04:10:36.538Z,90.31
2023-05-20T04:13:37.146Z,90.42
2023-05-20T04:16:43.275Z,91.75
2023-05-20T04:19:50.456Z,92.76
2023-05-20T04:22:57.558Z,93.19
2023-05-20T04:26:04.812Z,93.61
2023-05-20T04:29:11.379Z,93.67
2023-05-20T04:32:18.416Z,93.71
2023-05-20T04:35:25.850Z,93.81
2023-05-20T04:38:32.896Z,93.86
2023-05-20T04:41:39.769Z,93.87
2023-05-20T04:44:47.002Z,94.12
2023-05-20T04:47:53.994Z,94.12
2023-05-20T04:51:07.881Z,94.10
2023-05-20T04:54:26.485Z,94.19
2023-05-20T04:57:33.339Z,94.12
2023-05-20T05:00:40.306Z,94.19
2023-05-20T05:04:08.680Z,94.09
2023-05-20T05:07:35.784Z,93.80
2023-05-20T05:10:43.120Z,93.77
2023-05-20T05:13:55.494Z,93.89
2023-05-20T05:17:04.550Z,93.75
2023-05-20T05:20:11.475Z,92.05
2023-05-20T05:23:18.601Z,91.65
2023-05-20T05:26:30.382Z,92.25
2023-05-20T05:29:46.109Z,90.77
2023-05-20T05:32:45.746Z,91.11
2023-05-20T05:35:52.724Z,91.47
2023-05-20T05:38:59.756Z,91.45
2023-05-20T05:41:49.724Z,91.62
2023-05-20T05:45:05.906Z,91.54
2023-05-20T05:48:13.042Z,91.14
2023-05-20T05:51:20.531Z,91.01
2023-05-20T05:54:27.684Z,91.52
2023-05-20T05:57:36.966Z,91.17
2023-05-20T06:00:44.730Z,90.79
2023-05-20T06:03:51.502Z,91.30
2023-05-20T06:06:59.087Z,90.67
2023-05-20T06:10:06.033Z,90.52
2023-05-20T06:13:19.304Z,90.14
2023-05-20T06:16:26.775Z,89.39
2023-05-20T06:19:34.322Z,89.87
2023-05-20T06:23:01.942Z,89.80
2023-05-20T06:26:17.527Z,89.45
2023-05-20T06:29:26.562Z,88.18
2023-05-20T06:32:33.882Z,88.32
2023-05-20T06:35:42.161Z,87.94
2023-05-20T06:38:53.549Z,87.02
2023-05-20T06:42:09.555Z,85.51
2023-05-20T06:45:10.048Z,86.00
2023-05-20T06:48:23.024Z,85.92
2023-05-20T06:51:31.827Z,86.79
2023-05-20T06:54:38.723Z,86.51
2023-05-20T06:57:36.331Z,86.87
2023-05-20T07:00:43.880Z,87.80
2023-05-20T07:03:51.041Z,87.05
2023-05-20T07:06:58.047Z,85.23
2023-05-20T07:09:57.664Z,85.42
2023-05-20T07:13:04.534Z,84.97
2023-05-20T07:16:11.819Z,83.72
2023-05-20T07:19:18.824Z,85.23
2023-05-20T07:22:19.258Z,85.79
2023-05-20T07:25:36.388Z,82.81
2023-05-20T07:28:43.305Z,83.43
2023-05-20T07:31:50.255Z,83.59
2023-05-20T07:34:59.366Z,83.92
2023-05-20T07:38:07.159Z,84.35
2023-05-20T07:41:14.323Z,84.34
2023-05-20T07:44:24.320Z,83.84
2023-05-20T07:47:31.023Z,83.13
2023-05-20T07:50:38.091Z,82.89
2023-05-20T07:53:45.127Z,82.41
2023-05-20T07:56:52.124Z,82.28
2023-05-20T08:00:01.391Z,82.45
2023-05-20T08:03:08.660Z,82.67
2023-05-20T08:06:19.683Z,83.52
2023-05-20T08:09:26.602Z,82.46
2023-05-20T08:12:41.721Z,82.26
2023-05-20T08:15:49.617Z,82.56
2023-05-20T08:18:56.942Z,82.08
2023-05-20T08:22:05.913Z,81.89
2023-05-20T08:25:13.080Z,82.91
2023-05-20T08:28:22.365Z,84.53
2023-05-20T08:31:29.625Z,82.17
2023-05-20T08:34:40.182Z,82.65
2023-05-20T08:41:15.083Z,84.43
2023-05-20T08:44:36.928Z,83.71
2023-05-20T08:47:44.250Z,83.02
2023-05-20T08:50:51.341Z,83.44
2023-05-20T08:54:21.687Z,81.34
2023-05-20T08:58:11.353Z,81.23
2023-05-20T09:01:18.380Z,81.50
2023-05-20T09:04:18.217Z,79.74
2023-05-20T09:07:25.245Z,81.90
2023-05-20T09:10:14.896Z,81.01
2023-05-20T09:13:23.815Z,80.12
2023-05-20T09:16:31.048Z,79.49
2023-05-20T09:19:38.894Z,79.20
2023-05-20T09:22:45.933Z,79.42
2023-05-20T09:25:53.038Z,77.59
2023-05-20T09:29:00.026Z,76.76
2023-05-20T09:31:59.963Z,76.03
2023-05-20T09:35:07.012Z,78.17
2023-05-20T09:38:13.969Z,76.77
2023-05-20T09:41:21.254Z,74.60
2023-05-20T09:44:28.213Z,76.41
2023-05-20T09:47:35.751Z,74.99
2023-05-20T09:50:42.757Z,76.07
2023-05-20T09:53:42.180Z,75.55
2023-05-20T09:56:57.204Z,77.51
2023-05-20T09:59:58.636Z,75.49
2023-05-20T10:03:25.845Z,77.20
2023-05-20T10:06:33.197Z,77.89
2023-05-20T10:09:52.395Z,77.45
2023-05-20T10:12:59.361Z,75.79
2023-05-20T10:16:25.035Z,76.18
2023-05-20T10:19:32.961Z,78.00
2023-05-20T10:22:46.812Z,81.05
2023-05-20T10:25:53.683Z,77.58
2023-05-20T10:29:00.740Z,77.73
2023-05-20T10:32:08.782Z,77.91
2023-05-20T10:35:19.271Z,78.16
2023-05-20T10:38:28.916Z,79.12
2023-05-20T10:41:36.126Z,77.27
2023-05-20T10:45:02.982Z,75.80
2023-05-20T10:48:16.246Z,77.72
2023-05-20T10:51:23.392Z,78.30
2023-05-20T10:54:30.328Z,77.17
2023-05-20T10:57:39.218Z,76.80
2023-05-20T11:00:46.401Z,76.46
2023-05-20T11:03:53.528Z,75.07
2023-05-20T11:07:00.704Z,75.05
2023-05-20T11:10:10.747Z,72.25
2023-05-20T11:13:17.822Z,72.40
2023-05-20T11:16:24.965Z,72.02
2023-05-20T11:19:34.835Z,72.74
2023-05-20T11:22:41.959Z,71.95
2023-05-20T11:25:49.850Z,70.83
2023-05-20T11:28:59.266Z,71.19
2023-05-20T11:32:08.063Z,69.85
2023-05-20T11:35:19.370Z,69.20
2023-05-20T11:38:26.425Z,68.93
2023-05-20T11:41:33.754Z,65.50
2023-05-20T11:44:40.751Z,63.44
2023-05-20T11:47:48.021Z,64.91
2023-05-20T11:50:57.591Z,65.65
2023-05-20T11:54:05.849Z,66.34
2023-05-20T11:57:28.079Z,64.84
2023-05-20T12:00:49.245Z,67.27
2023-05-20T12:04:17.816Z,59.17
2023-05-20T12:07:27.537Z,57.08
2023-05-20T12:10:34.664Z,58.33
2023-05-20T12:13:41.929Z,59.34
2023-05-20T12:16:49.031Z,54.98
2023-05-20T12:19:57.232Z,55.37
2023-05-20T12:23:04.943Z,52.19
2023-05-20T12:26:12.081Z,52.08
2023-05-20T12:29:19.427Z,54.98
2023-05-20T12:32:28.632Z,49.79
2023-05-20T12:35:35.684Z,50.19
2023-05-20T12:38:42.716Z,51.29
2023-05-20T12:41:49.968Z,47.73
2023-05-20T12:44:49.713Z,47.98
2023-05-20T12:47:56.863Z,45.63
2023-05-20T12:51:04.072Z,46.32
2023-05-20T12:54:12.765Z,46.02
2023-05-20T12:57:19.636Z,45.72
2023-05-20T13:00:26.760Z,45.71
2023-05-20T13:03:33.722Z,43.80
2023-05-20T13:06:30.697Z,43.41
2023-05-20T13:09:37.751Z,46.72
2023-05-20T13:12:44.616Z,44.33
2023-05-20T13:15:41.472Z,44.02
2023-05-20T13:18:48.132Z,41.16
2023-05-20T13:21:55.278Z,39.67
2023-05-20T13:25:02.350Z,39.73
2023-05-20T13:28:09.489Z,38.23
2023-05-20T13:31:15.039Z,39.42
2023-05-20T13:34:22.106Z,39.30
2023-05-20T13:37:29.134Z,41.22
2023-05-20T13:40:36.221Z,40.90
2023-05-20T13:43:43.401Z,38.98
2023-05-20T13:46:50.277Z,37.28
2023-05-20T13:49:57.314Z,36.99
2023-05-20T13:52:55.073Z,38.84
2023-05-20T13:56:02.003Z,37.53
2023-05-20T13:59:10.033Z,39.22
2023-05-20T14:02:17.399Z,39.35
2023-05-20T14:05:24.550Z,37.10
2023-05-20T14:08:31.546Z,36.66
2023-05-20T14:11:38.722Z,36.01
2023-05-20T14:14:45.641Z,37.15
2023-05-20T14:17:52.707Z,34.61
2023-05-20T14:20:59.970Z,37.01
2023-05-20T14:23:59.570Z,33.12
2023-05-20T14:27:06.532Z,35.10
2023-05-20T14:30:13.351Z,36.24
2023-05-20T14:33:20.361Z,33.78
2023-05-20T14:36:27.331Z,33.77
2023-05-20T14:39:24.064Z,33.65
2023-05-20T14:42:31.074Z,36.24
2023-05-20T14:45:38.044Z,36.06
2023-05-20T14:48:45.105Z,33.39
2023-05-20T14:51:52.155Z,34.71
2023-05-20T14:54:59.029Z,33.68
2023-05-20T14:58:05.918Z,33.99
2023-05-20T15:01:12.962Z,33.75
2023-05-20T15:04:19.842Z,34.88
2023-05-20T15:07:27.103Z,35.41
2023-05-20T15:10:34.564Z,36.90
2023-05-20T15:13:41.950Z,35.70
2023-05-20T15:16:48.944Z,35.36
2023-05-20T15:19:56.924Z,34.88
2023-05-20T15:23:04.212Z,36.08
2023-05-20T15:26:11.112Z,35.41
2023-05-20T15:29:18.204Z,35.97
2023-05-20T15:32:33.914Z,34.26
2023-05-20T15:35:33.952Z,34.25
2023-05-20T15:38:41.783Z,33.25
2023-05-20T15:41:48.334Z,33.62
2023-05-20T15:44:55.280Z,33.94
2023-05-20T15:48:02.377Z,34.55
2023-05-20T15:51:09.529Z,34.39
2023-05-20T15:54:16.688Z,34.96
2023-05-20T15:57:23.730Z,35.38
2023-05-20T16:00:33.207Z,35.01
2023-05-20T16:03:26.195Z,34.30
2023-05-20T16:06:35.307Z,33.92
2023-05-20T16:09:42.447Z,35.14
2023-05-20T16:12:49.504Z,34.75
2023-05-20T16:15:56.500Z,34.59
2023-05-20T16:19:07.374Z,34.84
2023-05-20T16:22:14.640Z,35.08
2023-05-20T16:25:14.614Z,34.69
2023-05-20T16:28:14.287Z,35.39
2023-05-20T16:31:21.355Z,36.73
2023-05-20T16:34:28.313Z,37.02
2023-05-20T16:37:35.438Z,37.47
2023-05-20T16:40:42.387Z,38.25
2023-05-20T16:43:49.490Z,39.18
2023-05-20T16:46:54.929Z,39.53
2023-05-20T16:49:54.634Z,40.00
2023-05-20T16:53:02.080Z,40.76
2023-05-20T16:56:00.057Z,41.48
2023-05-20T16:59:08.141Z,42.02
2023-05-20T17:02:16.138Z,42.08
2023-05-20T17:05:26.612Z,42.13
2023-05-20T17:08:33.681Z,43.72
2023-05-20T17:11:34.538Z,47.53
2023-05-20T17:14:41.575Z,50.52
2023-05-20T17:17:48.711Z,52.90
2023-05-20T17:21:15.829Z,54.52
2023-05-20T17:24:15.353Z,56.75
2023-05-20T17:27:23.982Z,58.44
2023-05-20T17:30:30.984Z,58.77
2023-05-20T17:33:46.646Z,61.44
2023-05-20T17:36:53.828Z,62.99
2023-05-20T17:40:00.828Z,64.26
2023-05-20T17:43:07.745Z,64.99
2023-05-20T17:46:14.907Z,66.17
2023-05-20T17:49:22.045Z,66.68
2023-05-20T17:52:21.489Z,67.81
2023-05-20T17:55:28.682Z,68.27
2023-05-20T17:58:56.270Z,68.29
2023-05-20T18:02:25.107Z,68.50
2023-05-20T18:05:32.475Z,69.22
2023-05-20T18:08:31.075Z,69.00
2023-05-20T18:11:38.119Z,69.54
2023-05-20T18:14:45.225Z,69.70
2023-05-20T18:17:52.916Z,69.96
2023-05-20T18:20:59.967Z,68.94
2023-05-20T18:23:57.023Z,67.76
2023-05-20T18:27:05.086Z,67.33
2023-05-20T18:30:12.791Z,67.41
2023-05-20T18:33:24.461Z,66.48
2023-05-20T18:36:33.556Z,66.55
2023-05-20T18:40:27.330Z,66.16
2023-05-20T18:43:17.129Z,66.81
2023-05-20T18:46:24.513Z,67.08
2023-05-20T18:49:32.551Z,67.18
2023-05-20T18:52:43.141Z,67.69
2023-05-20T18:55:50.506Z,67.97
2023-05-20T18:59:01.601Z,67.50
2023-05-20T19:02:15.222Z,68.53
2023-05-20T19:05:24.322Z,68.66
2023-05-20T19:08:51.454Z,68.76
2023-05-20T19:12:35.240Z,68.45
2023-05-20T19:16:05.206Z,68.92
2023-05-20T19:19:33.561Z,68.63
2023-05-20T19:22:31.358Z,67.92
2023-05-20T19:25:58.709Z,69.30
2023-05-20T19:29:27.409Z,66.85
2023-05-20T19:32:34.700Z,66.50
2023-05-20T19:35:42.998Z,65.96
2023-05-20T19:39:10.430Z,67.76
2023-05-20T19:42:37.312Z,69.72
2023-05-20T19:45:46.397Z,68.24
2023-05-20T19:48:54.208Z,66.02
2023-05-20T19:52:21.294Z,64.78
2023-05-20T19:55:29.560Z,65.10
2023-05-20T19:58:56.986Z,65.66
2023-05-20T20:02:33.592Z,68.97
2023-05-20T20:06:18.167Z,66.62
2023-05-20T20:09:47.455Z,66.50
2023-05-20T20:12:55.774Z,66.69
2023-05-20T20:16:03.275Z,67.36
2023-05-20T20:19:26.927Z,67.46
2023-05-20T20:22:38.275Z,71.44
2023-05-20T20:25:46.395Z,70.00
2023-05-20T20:28:53.510Z,71.42
2023-05-20T20:32:00.492Z,69.00
2023-05-20T20:35:06.955Z,68.84
2023-05-20T20:38:13.643Z,69.36
2023-05-20T20:41:20.768Z,70.24
2023-05-20T20:44:30.766Z,70.66
2023-05-20T20:47:46.428Z,69.45
2023-05-20T20:50:53.697Z,69.38
2023-05-20T20:54:01.655Z,71.41
2023-05-20T20:57:08.578Z,69.93
2023-05-20T21:00:15.758Z,69.80
2023-05-20T21:03:23.160Z,70.58
2023-05-20T21:06:34.526Z,70.22
2023-05-20T21:09:41.940Z,70.32
2023-05-20T21:13:10.999Z,71.49
2023-05-20T21:16:21.332Z,71.72
2023-05-20T21:19:28.798Z,70.60
2023-05-20T21:22:44.381Z,70.51
2023-05-20T21:26:00.923Z,70.48
2023-05-20T21:29:08.632Z,70.40
2023-05-20T21:32:17.038Z,70.37
2023-05-20T21:35:24.449Z,70.26
2023-05-20T21:38:31.645Z,70.27
2023-05-20T21:41:38.536Z,70.17
2023-05-20T21:44:45.623Z,70.53
2023-05-20T21:47:55.691Z,72.64
2023-05-20T21:51:11.358Z,75.07
2023-05-20T21:54:18.544Z,75.82
2023-05-20T21:57:29.408Z,74.50
2023-05-20T22:00:36.641Z,74.14
2023-05-20T22:04:03.745Z,73.47
2023-05-20T22:07:18.978Z,72.87
2023-05-20T22:10:35.577Z,72.15
2023-05-20T22:13:42.672Z,72.36
2023-05-20T22:16:50.906Z,71.59
2023-05-20T22:19:58.040Z,71.45
2023-05-20T22:23:08.027Z,72.04
2023-05-20T22:26:08.734Z,71.71
2023-05-20T22:29:18.425Z,71.09
2023-05-20T22:32:26.529Z,71.19
2023-05-20T22:35:34.357Z,70.94
2023-05-20T22:39:21.290Z,71.08
2023-05-20T22:42:32.662Z,70.90
2023-05-20T22:45:39.972Z,71.17
2023-05-20T22:49:17.152Z,74.87
2023-05-20T22:52:24.839Z,74.64
2023-05-20T22:55:32.566Z,73.93
2023-05-20T22:58:43.826Z,74.36
2023-05-20T23:01:51.010Z,73.63
2023-05-20T23:04:59.504Z,74.37
2023-05-20T23:08:22.437Z,74.57
2023-05-20T23:11:29.717Z,73.33
2023-05-20T23:14:44.024Z,72.41
2023-05-20T23:18:11.029Z,72.40
2023-05-20T23:21:21.352Z,72.83
2023-05-20T23:24:28.227Z,72.86
2023-05-20T23:27:34.955Z,74.22
2023-05-20T23:30:45.941Z,73.31
2023-05-20T23:33:53.338Z,73.29
2023-05-20T23:37:00.569Z,73.19
2023-05-20T23:40:09.172Z,74.08
2023-05-20T23:43:16.297Z,74.62
2023-05-20T23:46:43.356Z,74.27
2023-05-20T23:49:51.495Z,75.31
2023-05-20T23:52:58.571Z,78.18
2023-05-20T23:56:05.609Z,78.52
2023-05-20T23:59:13.058Z,77.98
